Lady Goodgirl — 9H8679 — position and weather

sailwx.info

Track history (hours):
 
Tides and Currents Weather Stations Pressure Air Temp Water Temp Dewpoint Dewpoint Depression Visibility Wind Speed Wind Dir Waves Ship Positions

Lady Goodgirl

Last reported at 2014-Jul-22 23:30 UTC. Time now 2014-Jul-22 23:39 UTC.
Position N 43°16' E 006°40'.

Length 38 m; draft 3 m.

Type: Pleasure craft. MMSI: 256670000.

Date/timePositionNaut miles runAvg speedWind from/ knotsBaromVisibWave heightAir tempDewpointWater temp
2014-Jul-22 23:30N 43°16' E 006°40'0 0.0
2014-Jul-22 22:33N 43°16' E 006°40'0 0.0
2014-Jul-22 21:33N 43°16' E 006°40'0 0.0
2014-Jul-22 20:33N 43°16' E 006°40'0 0.0
2014-Jul-22 19:30N 43°16' E 006°40'0 0.0
2014-Jul-22 18:33N 43°16' E 006°40'0 0.2
2014-Jul-22 17:33N 43°17' E 006°40'7 6.5
2014-Jul-22 16:33N 43°10' E 006°39'1 0.7
2014-Jul-22 15:16N 43°10' E 006°38'1 0.2
2014-Jul-22 12:09N 43°10' E 006°39'610.6
2014-Jul-22 11:33N 43°15' E 006°43'2 2.1
2014-Jul-22 10:28N 43°16' E 006°40'0 0.0
2014-Jul-22 09:31N 43°16' E 006°40'0 0.0
2014-Jul-22 08:31N 43°16' E 006°40'0 0.0
2014-Jul-22 07:28N 43°16' E 006°40'0 0.0
2014-Jul-22 06:28N 43°16' E 006°40'0 0.0
2014-Jul-22 05:31N 43°16' E 006°40'0 0.0
2014-Jul-22 04:31N 43°16' E 006°40'0 0.0
2014-Jul-22 03:28N 43°16' E 006°40'0 0.0
2014-Jul-22 02:28N 43°16' E 006°40'0 0.0
2014-Jul-22 01:28N 43°16' E 006°40'0 0.0
2014-Jul-22 00:28N 43°16' E 006°40'0 0.0
2014-Jul-21 23:28N 43°16' E 006°40'0 0.0
2014-Jul-21 22:28N 43°16' E 006°40'0 0.0
2014-Jul-21 21:28N 43°16' E 006°40'0 0.0
2014-Jul-21 20:28N 43°16' E 006°40'0 0.1
2014-Jul-21 20:16N 43°16' E 006°40'0 0.0
2014-Jul-21 19:31N 43°16' E 006°40'0 0.0
2014-Jul-21 18:16N 43°16' E 006°40'0 0.0
2014-Jul-21 17:28N 43°16' E 006°40'0 0.0
2014-Jul-21 16:31N 43°16' E 006°40'0 0.4
2014-Jul-21 15:29N 43°16' E 006°39'0 0.1
2014-Jul-21 14:29N 43°16' E 006°39'0 0.0
2014-Jul-21 13:29N 43°16' E 006°39'0 0.0
2014-Jul-21 12:32N 43°16' E 006°39'0 0.0
2014-Jul-21 11:29N 43°16' E 006°39'0 0.0
2014-Jul-21 10:29N 43°16' E 006°39'0 0.0
2014-Jul-21 09:32N 43°16' E 006°39'0 0.0
2014-Jul-21 08:29N 43°16' E 006°39'0 0.2
2014-Jul-21 07:32N 43°16' E 006°40'0 0.0
2014-Jul-21 06:32N 43°16' E 006°40'0 0.0
2014-Jul-21 05:32N 43°16' E 006°40'0 0.0
2014-Jul-21 04:32N 43°16' E 006°40'0 0.0
2014-Jul-21 03:29N 43°16' E 006°40'0 0.0
2014-Jul-21 02:23N 43°16' E 006°40'0 0.0
2014-Jul-21 01:32N 43°16' E 006°40'0 0.0
2014-Jul-21 00:29N 43°16' E 006°40'0 0.0
2014-Jul-20 23:29N 43°16' E 006°40'0 0.0
2014-Jul-20 22:29N 43°16' E 006°40'0 0.0
2014-Jul-20 21:32N 43°16' E 006°39'0 0.0
2014-Jul-20 20:23N 43°16' E 006°39'0 0.0
2014-Jul-20 19:32N 43°16' E 006°39'0 0.0
2014-Jul-20 18:29N 43°16' E 006°39'1 1.3
2014-Jul-20 17:18N 43°16' E 006°37'0 0.0
2014-Jul-20 16:33N 43°16' E 006°37'0 0.0
2014-Jul-20 15:33N 43°16' E 006°37'0 0.0
2014-Jul-20 14:27N 43°16' E 006°37'0 0.0
2014-Jul-20 13:33N 43°16' E 006°37'0 0.0
2014-Jul-20 12:33N 43°16' E 006°37'0 0.0
2014-Jul-20 11:24N 43°16' E 006°37'0 0.0
2014-Jul-20 10:33N 43°16' E 006°37'0 0.0
2014-Jul-20 09:33N 43°16' E 006°37'0 0.0
2014-Jul-20 08:21N 43°16' E 006°37'0 0.0
2014-Jul-20 07:27N 43°16' E 006°37'0 0.0
2014-Jul-20 06:33N 43°16' E 006°37'0 0.0
2014-Jul-20 05:33N 43°16' E 006°37'0 0.0
2014-Jul-20 04:33N 43°16' E 006°37'0 0.0
2014-Jul-20 03:30N 43°16' E 006°37'0 0.0
2014-Jul-20 02:27N 43°16' E 006°37'0 0.0
2014-Jul-20 01:24N 43°16' E 006°37'0 0.0
2014-Jul-20 00:33N 43°16' E 006°37'0 0.0
2014-Jul-19 23:18N 43°16' E 006°37'0 0.0
2014-Jul-19 22:33N 43°16' E 006°37'0 0.0
2014-Jul-19 21:33N 43°16' E 006°37'0 0.0
2014-Jul-19 20:24N 43°16' E 006°37'0 0.0
2014-Jul-19 19:26N 43°16' E 006°37'0 0.0
2014-Jul-19 18:32N 43°16' E 006°37'0 0.0
2014-Jul-19 17:23N 43°16' E 006°37'0 0.0
2014-Jul-19 16:20N 43°16' E 006°37'4 4.6
2014-Jul-19 15:33N 43°17' E 006°42'1110.5
2014-Jul-19 14:33N 43°09' E 006°52'1010.4
2014-Jul-19 13:33N 43°01' E 007°01'1110.7
2014-Jul-19 12:33N 42°53' E 007°11'1110.4
2014-Jul-19 11:33N 42°45' E 007°20'1110.6
2014-Jul-19 10:33N 42°37' E 007°29'1110.7
2014-Jul-19 09:33N 42°29' E 007°39'1110.7
2014-Jul-19 08:33N 42°21' E 007°48'1110.7
2014-Jul-19 07:33N 42°12' E 007°58'  
Track history (hours):
 
Tides and Currents Weather Stations Pressure Air Temp Water Temp Dewpoint Dewpoint Depression Visibility Wind Speed Wind Dir Waves Ship Positions

Lady Goodgirl

Last reported at 2014-Jul-22 23:30 UTC. Time now 2014-Jul-22 23:39 UTC.
Position N 43°16' E 006°40'.

Length 38 m; draft 3 m.

Type: Pleasure craft. MMSI: 256670000.

Date/timePositionNaut miles runAvg speedWind from/ knotsBaromVisibWave heightAir tempDewpointWater temp
2014-Jul-22 23:30N 43°16' E 006°40'0 0.0
2014-Jul-22 22:33N 43°16' E 006°40'0 0.0
2014-Jul-22 21:33N 43°16' E 006°40'0 0.0
2014-Jul-22 20:33N 43°16' E 006°40'0 0.0
2014-Jul-22 19:30N 43°16' E 006°40'0 0.0
2014-Jul-22 18:33N 43°16' E 006°40'0 0.2
2014-Jul-22 17:33N 43°17' E 006°40'7 6.5
2014-Jul-22 16:33N 43°10' E 006°39'1 0.7
2014-Jul-22 15:16N 43°10' E 006°38'1 0.2
2014-Jul-22 12:09N 43°10' E 006°39'610.6
2014-Jul-22 11:33N 43°15' E 006°43'2 2.1
2014-Jul-22 10:28N 43°16' E 006°40'0 0.0
2014-Jul-22 09:31N 43°16' E 006°40'0 0.0
2014-Jul-22 08:31N 43°16' E 006°40'0 0.0
2014-Jul-22 07:28N 43°16' E 006°40'0 0.0
2014-Jul-22 06:28N 43°16' E 006°40'0 0.0
2014-Jul-22 05:31N 43°16' E 006°40'0 0.0
2014-Jul-22 04:31N 43°16' E 006°40'0 0.0
2014-Jul-22 03:28N 43°16' E 006°40'0 0.0
2014-Jul-22 02:28N 43°16' E 006°40'0 0.0
2014-Jul-22 01:28N 43°16' E 006°40'0 0.0
2014-Jul-22 00:28N 43°16' E 006°40'0 0.0
2014-Jul-21 23:28N 43°16' E 006°40'0 0.0
2014-Jul-21 22:28N 43°16' E 006°40'0 0.0
2014-Jul-21 21:28N 43°16' E 006°40'0 0.0
2014-Jul-21 20:28N 43°16' E 006°40'0 0.1
2014-Jul-21 20:16N 43°16' E 006°40'0 0.0
2014-Jul-21 19:31N 43°16' E 006°40'0 0.0
2014-Jul-21 18:16N 43°16' E 006°40'0 0.0
2014-Jul-21 17:28N 43°16' E 006°40'0 0.0
2014-Jul-21 16:31N 43°16' E 006°40'0 0.4
2014-Jul-21 15:29N 43°16' E 006°39'0 0.1
2014-Jul-21 14:29N 43°16' E 006°39'0 0.0
2014-Jul-21 13:29N 43°16' E 006°39'0 0.0
2014-Jul-21 12:32N 43°16' E 006°39'0 0.0
2014-Jul-21 11:29N 43°16' E 006°39'0 0.0
2014-Jul-21 10:29N 43°16' E 006°39'0 0.0
2014-Jul-21 09:32N 43°16' E 006°39'0 0.0
2014-Jul-21 08:29N 43°16' E 006°39'0 0.2
2014-Jul-21 07:32N 43°16' E 006°40'0 0.0
2014-Jul-21 06:32N 43°16' E 006°40'0 0.0
2014-Jul-21 05:32N 43°16' E 006°40'0 0.0
2014-Jul-21 04:32N 43°16' E 006°40'0 0.0
2014-Jul-21 03:29N 43°16' E 006°40'0 0.0
2014-Jul-21 02:23N 43°16' E 006°40'0 0.0
2014-Jul-21 01:32N 43°16' E 006°40'0 0.0
2014-Jul-21 00:29N 43°16' E 006°40'0 0.0
2014-Jul-20 23:29N 43°16' E 006°40'0 0.0
2014-Jul-20 22:29N 43°16' E 006°40'0 0.0
2014-Jul-20 21:32N 43°16' E 006°39'0 0.0
2014-Jul-20 20:23N 43°16' E 006°39'0 0.0
2014-Jul-20 19:32N 43°16' E 006°39'0 0.0
2014-Jul-20 18:29N 43°16' E 006°39'1 1.3
2014-Jul-20 17:18N 43°16' E 006°37'0 0.0
2014-Jul-20 16:33N 43°16' E 006°37'0 0.0
2014-Jul-20 15:33N 43°16' E 006°37'0 0.0
2014-Jul-20 14:27N 43°16' E 006°37'0 0.0
2014-Jul-20 13:33N 43°16' E 006°37'0 0.0
2014-Jul-20 12:33N 43°16' E 006°37'0 0.0
2014-Jul-20 11:24N 43°16' E 006°37'0 0.0
2014-Jul-20 10:33N 43°16' E 006°37'0 0.0
2014-Jul-20 09:33N 43°16' E 006°37'0 0.0
2014-Jul-20 08:21N 43°16' E 006°37'0 0.0
2014-Jul-20 07:27N 43°16' E 006°37'0 0.0
2014-Jul-20 06:33N 43°16' E 006°37'0 0.0
2014-Jul-20 05:33N 43°16' E 006°37'0 0.0
2014-Jul-20 04:33N 43°16' E 006°37'0 0.0
2014-Jul-20 03:30N 43°16' E 006°37'0 0.0
2014-Jul-20 02:27N 43°16' E 006°37'0 0.0
2014-Jul-20 01:24N 43°16' E 006°37'0 0.0
2014-Jul-20 00:33N 43°16' E 006°37'0 0.0
2014-Jul-19 23:18N 43°16' E 006°37'0 0.0
2014-Jul-19 22:33N 43°16' E 006°37'0 0.0
2014-Jul-19 21:33N 43°16' E 006°37'0 0.0
2014-Jul-19 20:24N 43°16' E 006°37'0 0.0
2014-Jul-19 19:26N 43°16' E 006°37'0 0.0
2014-Jul-19 18:32N 43°16' E 006°37'0 0.0
2014-Jul-19 17:23N 43°16' E 006°37'0 0.0
2014-Jul-19 16:20N 43°16' E 006°37'4 4.6
2014-Jul-19 15:33N 43°17' E 006°42'1110.5
2014-Jul-19 14:33N 43°09' E 006°52'1010.4
2014-Jul-19 13:33N 43°01' E 007°01'1110.7
2014-Jul-19 12:33N 42°53' E 007°11'1110.4
2014-Jul-19 11:33N 42°45' E 007°20'1110.6
2014-Jul-19 10:33N 42°37' E 007°29'1110.7
2014-Jul-19 09:33N 42°29' E 007°39'1110.7
2014-Jul-19 08:33N 42°21' E 007°48'1110.7
2014-Jul-19 07:33N 42°12' E 007°58'  

Dump ship's entire track history